createdAt,value
2018-08-17T00:01:11.415Z,94.50
2018-08-17T00:03:39.660Z,94.10
2018-08-17T00:06:07.712Z,93.90
2018-08-17T00:08:35.910Z,94.00
2018-08-17T00:11:04.076Z,94.00
2018-08-17T00:13:32.128Z,93.90
2018-08-17T00:16:00.325Z,93.80
2018-08-17T00:18:28.501Z,93.20
2018-08-17T00:20:56.745Z,93.40
2018-08-17T00:23:24.849Z,93.40
2018-08-17T00:25:52.915Z,93.10
2018-08-17T00:28:21.240Z,93.30
2018-08-17T00:30:49.463Z,93.50
2018-08-17T00:33:17.540Z,94.00
2018-08-17T00:35:45.555Z,94.10
2018-08-17T00:38:13.778Z,94.60
2018-08-17T00:40:41.849Z,95.40
2018-08-17T00:43:09.930Z,94.70
2018-08-17T00:45:37.995Z,95.00
2018-08-17T00:48:06.562Z,95.30
2018-08-17T00:50:34.646Z,94.60
2018-08-17T00:53:02.679Z,94.80
2018-08-17T00:55:30.899Z,94.90
2018-08-17T00:57:59.064Z,95.00
2018-08-17T01:00:27.206Z,94.70
2018-08-17T01:02:55.309Z,94.10
2018-08-17T01:05:23.244Z,94.30
2018-08-17T01:07:51.446Z,94.30
2018-08-17T01:10:19.621Z,95.00
2018-08-17T01:12:47.802Z,95.50
2018-08-17T01:15:15.859Z,95.60
2018-08-17T01:17:43.914Z,96.00
2018-08-17T01:20:13.024Z,96.20
2018-08-17T01:22:42.091Z,97.00
2018-08-17T01:25:10.196Z,97.50
2018-08-17T01:27:38.267Z,97.60
2018-08-17T01:30:07.315Z,97.40
2018-08-17T01:32:35.447Z,97.00
2018-08-17T01:35:03.799Z,96.60
2018-08-17T01:37:31.959Z,95.70
2018-08-17T01:40:00.089Z,95.60
2018-08-17T01:42:28.115Z,95.60
2018-08-17T01:44:56.257Z,95.90
2018-08-17T01:47:24.348Z,96.60
2018-08-17T01:49:52.445Z,97.50
2018-08-17T01:52:20.714Z,98.10
2018-08-17T01:54:48.798Z,98.70
2018-08-17T01:57:16.858Z,99.20
2018-08-17T01:59:44.899Z,99.80
2018-08-17T02:02:13.101Z,99.90
2018-08-17T02:04:41.274Z,99.90
2018-08-17T02:07:09.755Z,99.90
2018-08-17T02:09:37.929Z,99.90
2018-08-17T02:12:06.203Z,99.90
2018-08-17T02:14:34.303Z,99.30
2018-08-17T02:17:02.445Z,98.80
2018-08-17T02:19:30.603Z,98.30
2018-08-17T02:21:58.675Z,98.20
2018-08-17T02:24:26.785Z,98.60
2018-08-17T02:26:54.930Z,98.40
2018-08-17T02:29:23.114Z,98.90
2018-08-17T02:31:51.179Z,98.90
2018-08-17T02:34:19.251Z,98.60
2018-08-17T02:36:47.322Z,98.20
2018-08-17T02:39:15.504Z,98.10
2018-08-17T02:41:43.563Z,98.70
2018-08-17T02:44:11.723Z,98.90
2018-08-17T02:46:39.829Z,99.80
2018-08-17T02:49:07.874Z,99.90
2018-08-17T02:51:35.941Z,99.90
2018-08-17T02:54:04.123Z,99.90
2018-08-17T02:56:32.399Z,99.90
2018-08-17T02:59:00.471Z,99.90
2018-08-17T03:01:28.641Z,99.90
2018-08-17T03:03:56.688Z,99.90
2018-08-17T03:06:24.887Z,99.90
2018-08-17T03:08:52.927Z,99.90
2018-08-17T03:11:21.131Z,99.90
2018-08-17T03:13:49.307Z,99.90
2018-08-17T03:16:17.478Z,99.90
2018-08-17T03:18:45.741Z,99.90
2018-08-17T03:21:13.825Z,99.90
2018-08-17T03:23:42.000Z,99.90
2018-08-17T03:26:10.581Z,99.90
2018-08-17T03:28:38.659Z,99.90
2018-08-17T03:31:06.925Z,99.90
2018-08-17T03:33:35.099Z,99.90
2018-08-17T03:36:03.477Z,99.90
2018-08-17T03:38:32.086Z,99.90
2018-08-17T03:41:00.315Z,99.90
2018-08-17T03:43:28.478Z,99.90
2018-08-17T03:45:56.564Z,99.90
2018-08-17T03:48:24.753Z,99.90
2018-08-17T03:50:52.724Z,99.90
2018-08-17T03:53:20.797Z,99.90
2018-08-17T03:55:48.843Z,99.90
2018-08-17T03:58:16.903Z,99.90
2018-08-17T04:00:45.009Z,99.90
2018-08-17T04:03:13.062Z,99.90
2018-08-17T04:05:41.114Z,99.90
2018-08-17T04:08:09.171Z,99.90
2018-08-17T04:10:37.348Z,99.90
2018-08-17T04:13:05.783Z,99.90
2018-08-17T04:15:33.848Z,99.90
2018-08-17T04:18:01.859Z,99.90
2018-08-17T04:20:30.082Z,99.90
2018-08-17T04:22:58.124Z,99.90
2018-08-17T04:25:26.248Z,99.90
2018-08-17T04:27:54.403Z,99.90
2018-08-17T04:30:22.575Z,99.90
2018-08-17T04:32:50.615Z,99.90
2018-08-17T04:35:18.868Z,99.90
2018-08-17T04:37:46.984Z,99.90
2018-08-17T04:40:15.027Z,99.90
2018-08-17T04:42:43.111Z,99.90
2018-08-17T04:45:11.195Z,99.90
2018-08-17T04:47:39.279Z,99.90
2018-08-17T04:50:08.655Z,99.90
2018-08-17T04:52:36.894Z,99.90
2018-08-17T04:55:05.303Z,99.90
2018-08-17T04:57:33.706Z,99.90
2018-08-17T05:00:01.859Z,99.90
2018-08-17T05:02:29.972Z,99.90
2018-08-17T05:04:58.014Z,99.90
2018-08-17T05:07:26.178Z,99.90
2018-08-17T05:09:54.255Z,99.90
2018-08-17T05:12:22.295Z,99.90
2018-08-17T05:14:50.531Z,99.90
2018-08-17T05:17:18.783Z,99.90
2018-08-17T05:19:46.858Z,99.90
2018-08-17T05:22:14.884Z,99.90
2018-08-17T05:24:43.062Z,99.90
2018-08-17T05:27:11.223Z,99.90
2018-08-17T05:29:39.320Z,99.90
2018-08-17T05:32:07.685Z,99.90
2018-08-17T05:34:35.996Z,99.90
2018-08-17T05:37:04.175Z,99.90
2018-08-17T05:39:32.231Z,99.90
2018-08-17T05:42:00.283Z,99.90
2018-08-17T05:44:28.444Z,99.90
2018-08-17T05:46:56.598Z,99.90
2018-08-17T05:49:24.873Z,99.90
2018-08-17T05:51:53.106Z,99.90
2018-08-17T05:54:21.157Z,99.90
2018-08-17T05:56:49.312Z,99.90
2018-08-17T05:59:17.483Z,99.90
2018-08-17T06:01:45.555Z,99.90
2018-08-17T06:04:13.619Z,99.90
2018-08-17T06:06:41.735Z,99.90
2018-08-17T06:09:10.267Z,99.90
2018-08-17T06:11:38.587Z,99.90
2018-08-17T06:14:06.998Z,99.90
2018-08-17T06:16:35.220Z,99.90
2018-08-17T06:19:03.487Z,99.90
2018-08-17T06:21:31.793Z,99.90
2018-08-17T06:23:59.851Z,99.90
2018-08-17T06:26:28.044Z,99.90
2018-08-17T06:28:56.247Z,99.90
2018-08-17T06:31:24.523Z,99.90
2018-08-17T06:33:52.774Z,99.90
2018-08-17T06:36:20.809Z,99.90
2018-08-17T06:38:49.220Z,99.90
2018-08-17T06:41:17.494Z,99.90
2018-08-17T06:43:45.660Z,99.90
2018-08-17T06:46:13.849Z,99.90
2018-08-17T06:48:41.909Z,99.90
2018-08-17T06:51:10.045Z,99.90
2018-08-17T06:53:38.111Z,99.90
2018-08-17T06:56:06.315Z,99.90
2018-08-17T06:58:34.502Z,99.90
2018-08-17T07:01:02.677Z,99.90
2018-08-17T07:03:30.955Z,99.90
2018-08-17T07:05:59.328Z,99.80
2018-08-17T07:08:27.458Z,99.90
2018-08-17T07:10:55.611Z,99.90
2018-08-17T07:13:23.842Z,97.30
2018-08-17T07:15:51.917Z,97.10
2018-08-17T07:18:20.091Z,98.40
2018-08-17T07:20:48.164Z,99.20
2018-08-17T07:23:16.231Z,99.00
2018-08-17T07:25:44.611Z,99.00
2018-08-17T07:28:12.714Z,97.80
2018-08-17T07:30:40.957Z,95.10
2018-08-17T07:33:09.051Z,97.20
2018-08-17T07:35:37.311Z,94.40
2018-08-17T07:38:05.476Z,92.50
2018-08-17T07:40:33.659Z,91.10
2018-08-17T07:43:01.821Z,92.30
2018-08-17T07:45:29.896Z,91.30
2018-08-17T07:47:58.203Z,91.20
2018-08-17T07:50:26.448Z,91.70
2018-08-17T07:52:54.493Z,90.50
2018-08-17T07:55:22.603Z,88.40
2018-08-17T07:57:50.652Z,86.70
2018-08-17T08:00:18.739Z,86.90
2018-08-17T08:02:46.878Z,88.80
2018-08-17T08:05:15.071Z,90.50
2018-08-17T08:07:43.251Z,87.10
2018-08-17T08:10:11.940Z,85.70
2018-08-17T08:12:40.014Z,83.80
2018-08-17T08:15:08.382Z,83.70
2018-08-17T08:17:36.861Z,81.70
2018-08-17T08:20:10.569Z,83.50
2018-08-17T08:22:38.851Z,79.50
2018-08-17T08:25:07.008Z,77.50
2018-08-17T08:27:35.249Z,78.90
2018-08-17T08:30:03.470Z,76.80
2018-08-17T08:32:31.576Z,76.80
2018-08-17T08:34:59.781Z,76.20
2018-08-17T08:37:27.954Z,76.60
2018-08-17T08:39:56.407Z,76.20
2018-08-17T08:42:24.393Z,72.10
2018-08-17T08:44:52.608Z,71.60
2018-08-17T08:47:21.762Z,74.40
2018-08-17T08:49:50.952Z,75.50
2018-08-17T08:52:20.035Z,74.70
2018-08-17T08:54:48.960Z,72.80
2018-08-17T08:57:18.276Z,73.30
2018-08-17T08:59:47.443Z,72.00
2018-08-17T09:02:16.521Z,72.90
2018-08-17T09:04:45.616Z,70.80
2018-08-17T09:07:14.486Z,70.30
2018-08-17T09:09:43.524Z,69.90
2018-08-17T09:12:12.490Z,68.30
2018-08-17T09:14:41.590Z,66.40
2018-08-17T09:17:10.673Z,64.80
2018-08-17T09:19:39.760Z,63.80
2018-08-17T09:22:08.900Z,62.20
2018-08-17T09:24:37.969Z,63.00
2018-08-17T09:27:07.211Z,61.70
2018-08-17T09:29:36.276Z,61.70
2018-08-17T09:32:05.437Z,63.70
2018-08-17T09:34:34.591Z,62.90
2018-08-17T09:37:03.956Z,59.70
2018-08-17T09:39:32.918Z,60.40
2018-08-17T09:42:01.962Z,62.40
2018-08-17T09:44:30.952Z,62.20
2018-08-17T09:47:00.064Z,60.30
2018-08-17T09:49:29.312Z,59.40
2018-08-17T09:51:58.519Z,58.70
2018-08-17T09:54:27.629Z,59.90
2018-08-17T09:56:56.808Z,61.20
2018-08-17T09:59:25.958Z,63.70
2018-08-17T10:02:00.144Z,61.40
2018-08-17T10:04:34.090Z,59.40
2018-08-17T10:07:08.612Z,60.40
2018-08-17T10:09:42.771Z,59.60
2018-08-17T10:12:11.866Z,59.10
2018-08-17T10:14:40.947Z,59.40
2018-08-17T10:17:10.112Z,58.40
2018-08-17T10:19:39.151Z,58.50
2018-08-17T10:22:08.543Z,58.90
2018-08-17T10:24:37.536Z,59.20
2018-08-17T10:27:06.625Z,58.30
2018-08-17T10:29:35.827Z,57.80
2018-08-17T10:32:05.050Z,58.20
2018-08-17T10:34:34.113Z,58.50
2018-08-17T10:37:03.117Z,58.70
2018-08-17T10:39:31.909Z,58.80
2018-08-17T10:42:01.092Z,56.70
2018-08-17T10:44:30.205Z,54.90
2018-08-17T10:46:59.028Z,54.10
2018-08-17T10:49:27.824Z,54.20
2018-08-17T10:51:57.285Z,54.70
2018-08-17T10:54:26.414Z,53.90
2018-08-17T10:56:55.278Z,54.00
2018-08-17T10:59:24.046Z,51.80
2018-08-17T11:01:52.790Z,52.10
2018-08-17T11:04:21.625Z,53.50
2018-08-17T11:06:50.453Z,51.10
2018-08-17T11:09:19.250Z,50.20
2018-08-17T11:11:48.012Z,50.80
2018-08-17T11:14:16.805Z,49.60
2018-08-17T11:16:45.661Z,48.80
2018-08-17T11:19:14.468Z,49.10
2018-08-17T11:21:43.256Z,49.50
2018-08-17T11:24:12.079Z,50.60
2018-08-17T11:26:40.869Z,49.90
2018-08-17T11:29:09.695Z,47.40
2018-08-17T11:31:38.474Z,48.60
2018-08-17T11:34:07.325Z,48.60
2018-08-17T11:36:36.170Z,48.40
2018-08-17T11:39:06.479Z,49.30
2018-08-17T11:41:35.308Z,47.60
2018-08-17T11:44:07.763Z,47.10
2018-08-17T11:46:36.593Z,46.70
2018-08-17T11:49:05.625Z,45.60
2018-08-17T11:51:35.519Z,46.00
2018-08-17T11:54:04.357Z,46.20
2018-08-17T11:56:33.203Z,45.40
2018-08-17T11:59:02.027Z,45.10
2018-08-17T12:01:30.981Z,43.80
2018-08-17T12:03:59.943Z,45.20
2018-08-17T12:06:28.780Z,44.40
2018-08-17T12:08:57.565Z,44.30
2018-08-17T12:11:26.395Z,42.50
2018-08-17T12:13:55.177Z,42.80
2018-08-17T12:16:23.985Z,43.90
2018-08-17T12:18:52.881Z,44.20
2018-08-17T12:21:21.644Z,44.60
2018-08-17T12:23:50.417Z,41.80
2018-08-17T12:26:19.234Z,41.70
2018-08-17T12:28:48.076Z,41.90
2018-08-17T12:31:16.891Z,42.10
2018-08-17T12:33:45.681Z,41.60
2018-08-17T12:36:14.471Z,39.50
2018-08-17T12:38:43.260Z,39.70
2018-08-17T12:41:12.075Z,40.10
2018-08-17T12:43:40.892Z,39.40
2018-08-17T12:46:09.733Z,38.70
2018-08-17T12:48:38.539Z,39.10
2018-08-17T12:51:08.351Z,39.60
2018-08-17T12:53:37.204Z,40.20
2018-08-17T12:56:06.030Z,40.00
2018-08-17T12:58:34.890Z,39.90
2018-08-17T13:01:03.764Z,39.30
2018-08-17T13:03:32.573Z,39.80
2018-08-17T13:06:01.383Z,38.90
2018-08-17T13:08:30.218Z,38.40
2018-08-17T13:10:59.605Z,37.90
2018-08-17T13:13:28.515Z,38.50
2018-08-17T13:16:02.543Z,38.60
2018-08-17T13:18:34.357Z,37.80
2018-08-17T13:21:03.167Z,36.90
2018-08-17T13:23:32.034Z,38.10
2018-08-17T13:26:00.844Z,36.90
2018-08-17T13:28:29.709Z,37.30
2018-08-17T13:30:58.544Z,37.30
2018-08-17T13:33:27.355Z,37.30
2018-08-17T13:35:56.220Z,36.80
2018-08-17T13:38:26.070Z,35.80
2018-08-17T13:40:54.878Z,35.90
2018-08-17T13:43:23.695Z,36.30
2018-08-17T13:45:52.532Z,35.90
2018-08-17T13:48:21.329Z,35.60
2018-08-17T13:50:50.118Z,35.50
2018-08-17T13:53:18.909Z,34.80
2018-08-17T13:55:47.735Z,34.60
2018-08-17T13:58:16.571Z,35.10
2018-08-17T14:00:45.414Z,34.90
2018-08-17T14:03:14.186Z,35.50
2018-08-17T14:05:43.047Z,33.70
2018-08-17T14:08:11.796Z,33.90
2018-08-17T14:10:40.600Z,33.90
2018-08-17T14:13:09.486Z,33.00
2018-08-17T14:15:38.339Z,33.30
2018-08-17T14:18:07.180Z,33.40
2018-08-17T14:20:36.012Z,33.00
2018-08-17T14:23:04.869Z,32.90
2018-08-17T14:25:34.788Z,33.60
2018-08-17T14:28:03.591Z,32.50
2018-08-17T14:30:32.452Z,33.90
2018-08-17T14:33:01.282Z,33.40
2018-08-17T14:35:30.113Z,32.90
2018-08-17T14:37:58.930Z,33.60
2018-08-17T14:40:27.801Z,32.80
2018-08-17T14:42:56.572Z,33.30
2018-08-17T14:45:25.423Z,33.50
2018-08-17T14:47:54.195Z,33.60
2018-08-17T14:50:23.127Z,33.60
2018-08-17T14:52:51.901Z,33.20
2018-08-17T14:55:20.766Z,33.40
2018-08-17T14:57:49.647Z,34.30
2018-08-17T15:00:18.474Z,34.00
2018-08-17T15:02:47.316Z,33.50
2018-08-17T15:05:16.434Z,33.90
2018-08-17T15:07:45.358Z,32.20
2018-08-17T15:10:14.903Z,33.00
2018-08-17T15:12:44.046Z,34.20
2018-08-17T15:15:13.417Z,33.40
2018-08-17T15:17:42.247Z,34.10
2018-08-17T15:20:12.504Z,34.10
2018-08-17T15:22:41.398Z,34.30
2018-08-17T15:25:10.268Z,34.00
2018-08-17T15:27:39.155Z,34.20
2018-08-17T15:30:10.369Z,34.80
2018-08-17T15:32:39.882Z,35.10
2018-08-17T15:35:09.181Z,35.00
2018-08-17T15:37:38.523Z,34.40
2018-08-17T15:40:09.471Z,35.10
2018-08-17T15:42:38.372Z,34.30
2018-08-17T15:45:08.305Z,34.10
2018-08-17T15:47:37.369Z,34.80
2018-08-17T15:50:08.434Z,34.40
2018-08-17T15:52:37.265Z,34.50
2018-08-17T15:55:06.080Z,35.10
2018-08-17T15:57:34.922Z,34.60
2018-08-17T16:00:03.919Z,34.50
2018-08-17T16:02:32.773Z,34.20
2018-08-17T16:05:01.608Z,35.10
2018-08-17T16:07:30.399Z,34.80
2018-08-17T16:09:59.182Z,35.20
2018-08-17T16:12:27.997Z,35.30
2018-08-17T16:14:56.868Z,35.40
2018-08-17T16:17:25.949Z,35.10
2018-08-17T16:19:54.707Z,35.00
2018-08-17T16:22:23.581Z,34.90
2018-08-17T16:24:52.588Z,35.40
2018-08-17T16:27:21.386Z,35.50
2018-08-17T16:29:50.265Z,35.60
2018-08-17T16:32:19.140Z,36.30
2018-08-17T16:34:47.973Z,36.70
2018-08-17T16:37:16.793Z,36.60
2018-08-17T16:39:50.825Z,36.50
2018-08-17T16:42:36.214Z,36.50
2018-08-17T16:45:07.018Z,37.20
2018-08-17T16:47:35.805Z,38.10
2018-08-17T16:50:05.220Z,38.40
2018-08-17T16:52:34.042Z,38.70
2018-08-17T16:55:02.882Z,38.90
2018-08-17T16:57:31.680Z,37.70
2018-08-17T17:00:00.517Z,38.00
2018-08-17T17:02:29.313Z,38.80
2018-08-17T17:04:58.484Z,38.80
2018-08-17T17:07:29.826Z,39.50
2018-08-17T17:09:58.737Z,40.00
2018-08-17T17:12:27.912Z,39.90
2018-08-17T17:15:10.663Z,40.50
2018-08-17T17:17:39.715Z,40.20
2018-08-17T17:20:09.384Z,40.20
2018-08-17T17:22:38.512Z,40.70
2018-08-17T17:25:12.654Z,41.50
2018-08-17T17:27:41.707Z,42.20
2018-08-17T17:30:10.539Z,42.40
2018-08-17T17:32:39.363Z,42.80
2018-08-17T17:35:08.263Z,43.20
2018-08-17T17:37:37.126Z,43.30
2018-08-17T17:40:07.550Z,44.00
2018-08-17T17:42:36.355Z,44.10
2018-08-17T17:45:07.824Z,44.50
2018-08-17T17:47:37.264Z,44.30
2018-08-17T17:50:06.375Z,44.40
2018-08-17T17:52:35.785Z,44.50
2018-08-17T17:55:04.980Z,44.60
2018-08-17T17:57:33.756Z,44.60
2018-08-17T18:00:02.586Z,45.10
2018-08-17T18:02:31.444Z,44.90
2018-08-17T18:05:00.253Z,45.60
2018-08-17T18:07:34.181Z,45.90
2018-08-17T18:10:03.842Z,46.20
2018-08-17T18:12:33.137Z,46.60
2018-08-17T18:15:02.233Z,46.70
2018-08-17T18:17:32.313Z,47.30
2018-08-17T18:20:01.162Z,47.00
2018-08-17T18:22:32.358Z,47.10
2018-08-17T18:25:06.345Z,47.40
2018-08-17T18:27:35.860Z,47.40
2018-08-17T18:30:05.173Z,47.50
2018-08-17T18:32:34.005Z,47.60
2018-08-17T18:35:03.032Z,47.60
2018-08-17T18:37:31.968Z,47.40
2018-08-17T18:40:01.074Z,48.60
2018-08-17T18:42:29.864Z,49.50
2018-08-17T18:44:59.162Z,50.10
2018-08-17T18:47:28.016Z,50.10
2018-08-17T18:49:57.198Z,50.10
2018-08-17T18:52:26.344Z,49.90
2018-08-17T18:54:55.215Z,49.90
2018-08-17T18:57:24.293Z,50.40
2018-08-17T18:59:53.419Z,50.70
2018-08-17T19:02:22.268Z,52.00
2018-08-17T19:04:51.053Z,51.80
2018-08-17T19:07:19.889Z,52.10
2018-08-17T19:09:48.867Z,52.70
2018-08-17T19:12:17.957Z,53.20
2018-08-17T19:14:48.946Z,53.80
2018-08-17T19:17:23.282Z,53.70
2018-08-17T19:19:53.207Z,53.90
2018-08-17T19:22:22.512Z,53.10
2018-08-17T19:24:52.836Z,52.40
2018-08-17T19:27:31.338Z,52.30
2018-08-17T19:30:00.363Z,52.70
2018-08-17T19:32:29.333Z,53.10
2018-08-17T19:34:58.369Z,53.30
2018-08-17T19:37:27.568Z,53.70
2018-08-17T19:39:56.650Z,53.70
2018-08-17T19:42:25.862Z,53.70
2018-08-17T19:44:55.036Z,54.00
2018-08-17T19:47:24.134Z,54.90
2018-08-17T19:49:53.329Z,56.30
2018-08-17T19:52:22.544Z,55.80
2018-08-17T19:54:51.551Z,56.00
2018-08-17T19:57:20.861Z,56.40
2018-08-17T19:59:49.973Z,57.00
2018-08-17T20:02:19.245Z,56.90
2018-08-17T20:04:48.521Z,55.30
2018-08-17T20:07:17.800Z,55.10
2018-08-17T20:09:46.829Z,54.90
2018-08-17T20:12:15.808Z,55.00
2018-08-17T20:14:45.086Z,54.80
2018-08-17T20:17:14.100Z,55.10
2018-08-17T20:19:49.124Z,55.40
2018-08-17T20:22:21.528Z,55.70
2018-08-17T20:24:50.567Z,56.10
2018-08-17T20:27:20.346Z,56.20
2018-08-17T20:29:49.637Z,56.00
2018-08-17T20:32:18.784Z,55.80
2018-08-17T20:34:49.403Z,55.60
2018-08-17T20:37:18.815Z,55.50
2018-08-17T20:39:48.118Z,55.50
2018-08-17T20:42:17.217Z,55.20
2018-08-17T20:44:46.272Z,55.60
2018-08-17T20:47:15.313Z,56.70
2018-08-17T20:49:44.435Z,56.50
2018-08-17T20:52:13.697Z,57.40
2018-08-17T20:54:43.025Z,57.30
2018-08-17T20:57:11.969Z,56.60
2018-08-17T20:59:41.104Z,56.40
2018-08-17T21:02:10.210Z,56.60
2018-08-17T21:04:39.292Z,57.00
2018-08-17T21:07:08.424Z,57.30
2018-08-17T21:09:37.561Z,58.00
2018-08-17T21:12:06.572Z,57.80
2018-08-17T21:14:35.687Z,58.70
2018-08-17T21:17:04.632Z,59.30
2018-08-17T21:19:40.990Z,60.90
2018-08-17T21:22:11.049Z,61.10
2018-08-17T21:24:40.356Z,61.30
2018-08-17T21:27:09.404Z,60.90
2018-08-17T21:29:38.691Z,61.40
2018-08-17T21:32:07.972Z,60.60
2018-08-17T21:34:37.139Z,61.60
2018-08-17T21:37:06.433Z,61.80
2018-08-17T21:39:35.747Z,61.40
2018-08-17T21:42:04.942Z,62.30
2018-08-17T21:44:34.058Z,63.10
2018-08-17T21:47:04.434Z,63.40
2018-08-17T21:49:34.105Z,63.70
2018-08-17T21:52:09.063Z,64.60
2018-08-17T21:54:38.356Z,65.00
2018-08-17T21:57:07.486Z,65.30
2018-08-17T21:59:41.675Z,66.60
2018-08-17T22:02:11.490Z,66.60
2018-08-17T22:04:40.604Z,65.70
2018-08-17T22:07:14.878Z,65.50
2018-08-17T22:09:44.418Z,66.00
2018-08-17T22:12:13.927Z,65.40
2018-08-17T22:14:45.147Z,65.20
2018-08-17T22:17:25.383Z,64.50
2018-08-17T22:19:54.548Z,65.10
2018-08-17T22:22:23.717Z,65.10
2018-08-17T22:24:54.810Z,65.40
2018-08-17T22:27:24.751Z,66.90
2018-08-17T22:29:55.890Z,67.50
2018-08-17T22:32:25.287Z,68.30
2018-08-17T22:34:54.573Z,69.20
2018-08-17T22:37:23.743Z,68.80
2018-08-17T22:39:52.713Z,68.60
2018-08-17T22:42:22.998Z,68.70
2018-08-17T22:44:52.317Z,69.10
2018-08-17T22:47:24.411Z,69.10
2018-08-17T22:49:54.989Z,69.20
2018-08-17T22:52:24.212Z,69.90
2018-08-17T22:55:00.544Z,70.00
2018-08-17T22:57:30.454Z,70.30
2018-08-17T23:00:14.865Z,71.30
2018-08-17T23:02:44.853Z,71.10
2018-08-17T23:05:15.982Z,72.00
2018-08-17T23:07:45.078Z,73.60
2018-08-17T23:10:16.074Z,74.50
2018-08-17T23:12:46.225Z,76.10
2018-08-17T23:15:15.538Z,77.30
2018-08-17T23:17:48.229Z,78.60
2018-08-17T23:20:21.498Z,79.00
2018-08-17T23:22:52.675Z,78.80
2018-08-17T23:25:21.831Z,77.50
2018-08-17T23:27:51.437Z,77.50
2018-08-17T23:30:20.804Z,78.20
2018-08-17T23:32:50.091Z,79.50
2018-08-17T23:35:19.357Z,79.40
2018-08-17T23:37:48.459Z,79.40
2018-08-17T23:40:17.621Z,80.60
2018-08-17T23:42:46.829Z,81.10
2018-08-17T23:45:17.176Z,83.30
2018-08-17T23:47:46.424Z,85.30
2018-08-17T23:50:16.209Z,86.30
2018-08-17T23:52:45.283Z,86.60
2018-08-17T23:55:16.936Z,87.80
2018-08-17T23:57:46.247Z,87.20
